Terminal Aerodrome Forecast
Issued by NWS

Home | Current Version | Previous Version | Text Only | Print | Product List | Glossary On
Versions: 1 2 3 4 5 6 7 8 9 10 11 12 13 14
607
FTUS42 KJAX 292343
TAFCRG
TAF
KCRG 292343Z 3000/3024 13014G21KT P6SM FEW035 BKN250
     FM300200 13012KT P6SM SCT025 SCT250
     FM300500 14009KT P6SM OVC015
     FM301500 15014G22KT P6SM BKN025
     FM301700 14015G24KT P6SM SCT035 BKN250=

USA.gov is the U.S. government's official web portal to all federal, state and local government web resources and services.